Time;durP1;ratioP1;P1;durP2;ratioP2;P2;SDS_P1;SDS_P2;PMS_P1;PMS_P2;Temp;Humidity;BMP_temperature;BMP_pressure;BME280_temperature;BME280_humidity;BME280_pressure;Samples;Min_cycle;Max_cycle;Signal;HPM_P1;HPM_P2
2022/09/06 00:00:42;;;;;;;4.90;2.80;;;;;;;;;;6282409;28;20100;-80
2022/09/06 00:03:44;;;;;;;3.08;2.60;;;;;;;;;;6279706;28;20491;-81
2022/09/06 00:06:46;;;;;;;4.35;2.67;;;;;;;;;;6296907;28;20044;-80
2022/09/06 00:09:48;;;;;;;4.45;2.42;;;;;;;;;;6294863;28;20090;-81
2022/09/06 00:12:49;;;;;;;3.25;2.50;;;;;;;;;;6296562;28;20056;-79
2022/09/06 00:15:51;;;;;;;3.45;2.60;;;;;;;;;;6288976;28;20079;-79
2022/09/06 00:18:54;;;;;;;3.45;2.40;;;;;;;;;;6288940;28;20157;-80
2022/09/06 00:21:55;;;;;;;4.50;2.40;;;;;;;;;;6295244;28;20115;-81
2022/09/06 00:24:57;;;;;;;3.92;2.78;;;;;;;;;;6296237;28;20096;-80
2022/09/06 00:28:01;;;;;;;3.17;2.88;;;;;;;;;;6282408;28;20075;-80
2022/09/06 00:31:13;;;;;;;3.28;2.63;;;;;;;;;;6276109;28;20175;-79
2022/09/06 00:34:15;;;;;;;3.85;2.35;;;;;;;;;;6295747;28;20049;-80
2022/09/06 00:37:16;;;;;;;5.55;2.63;;;;;;;;;;6285704;28;20128;-78
2022/09/06 00:40:18;;;;;;;5.38;2.72;;;;;;;;;;6278778;28;20129;-78
2022/09/06 00:43:20;;;;;;;3.05;2.63;;;;;;;;;;6296256;28;20146;-79
2022/09/06 00:46:26;;;;;;;3.90;2.90;;;;;;;;;;6288125;28;20067;-81
2022/09/06 00:49:33;;;;;;;2.85;2.58;;;;;;;;;;6293960;28;20040;-81
2022/09/06 00:52:35;;;;;;;3.83;2.60;;;;;;;;;;6295381;28;20479;-79
2022/09/06 00:55:39;;;;;;;2.95;2.65;;;;;;;;;;6294236;28;20090;-79
2022/09/06 00:58:41;;;;;;;3.33;2.70;;;;;;;;;;6283837;28;20098;-80
2022/09/06 01:01:43;;;;;;;3.50;2.75;;;;;;;;;;6293992;28;20043;-80
2022/09/06 01:04:47;;;;;;;3.30;2.70;;;;;;;;;;6293961;28;20040;-78
2022/09/06 01:08:02;;;;;;;4.43;2.40;;;;;;;;;;6291335;28;20450;-79
2022/09/06 01:11:26;;;;;;;6.45;2.58;;;;;;;;;;6278893;28;20102;-80
2022/09/06 01:14:39;;;;;;;4.63;2.63;;;;;;;;;;6292354;28;20052;-80
2022/09/06 01:18:10;;;;;;;3.03;2.72;;;;;;;;;;6282583;28;20044;-79
2022/09/06 01:21:36;;;;;;;3.10;2.80;;;;;;;;;;6293095;28;20047;-77
2022/09/06 01:24:58;;;;;;;2.80;2.40;;;;;;;;;;6252920;28;20037;-79
2022/09/06 01:28:00;;;;;;;3.90;3.00;;;;;;;;;;6262453;28;20079;-79
2022/09/06 01:31:40;;;;;;;3.42;2.85;;;;;;;;;;6266436;28;20037;-80
2022/09/06 01:34:49;;;;;;;3.70;2.97;;;;;;;;;;6243372;28;20045;-79
2022/09/06 01:37:51;;;;;;;3.45;2.67;;;;;;;;;;6278752;28;20068;-79
2022/09/06 01:40:52;;;;;;;2.85;2.55;;;;;;;;;;6290372;28;20499;-81
2022/09/06 01:43:55;;;;;;;4.03;2.97;;;;;;;;;;6271084;28;20478;-80
2022/09/06 01:47:17;;;;;;;3.42;2.70;;;;;;;;;;6289319;28;20053;-78
2022/09/06 01:50:34;;;;;;;4.68;2.70;;;;;;;;;;6296615;28;20159;-81
2022/09/06 01:53:57;;;;;;;3.58;2.83;;;;;;;;;;6285671;28;20075;-77
2022/09/06 01:57:25;;;;;;;3.08;2.78;;;;;;;;;;6286155;28;20053;-79
2022/09/06 02:00:28;;;;;;;3.45;3.03;;;;;;;;;;6297023;28;20052;-80
2022/09/06 02:03:40;;;;;;;3.97;3.00;;;;;;;;;;6278379;28;20052;-78
2022/09/06 02:06:47;;;;;;;3.07;2.57;;;;;;;;;;6295427;28;20113;-79
2022/09/06 02:10:07;;;;;;;3.55;3.25;;;;;;;;;;6275765;28;20082;-79
2022/09/06 02:13:11;;;;;;;3.40;2.65;;;;;;;;;;6292786;28;20077;-78
2022/09/06 02:16:17;;;;;;;3.50;2.97;;;;;;;;;;6290317;28;20048;-77
2022/09/06 02:19:46;;;;;;;4.30;2.83;;;;;;;;;;6285013;28;20087;-79
2022/09/06 02:22:49;;;;;;;3.88;2.75;;;;;;;;;;6289132;28;20071;-79
2022/09/06 02:25:58;;;;;;;3.65;2.78;;;;;;;;;;6276003;28;20064;-78
2022/09/06 02:29:00;;;;;;;4.13;3.05;;;;;;;;;;6282073;28;20515;-79
2022/09/06 02:32:14;;;;;;;4.10;2.83;;;;;;;;;;6285921;28;20041;-77
2022/09/06 02:35:16;;;;;;;4.32;2.70;;;;;;;;;;6298054;28;20048;-79
2022/09/06 02:38:20;;;;;;;3.40;3.08;;;;;;;;;;6294316;28;20052;-79
2022/09/06 02:41:23;;;;;;;3.95;2.88;;;;;;;;;;6277418;28;20044;-77
2022/09/06 02:44:24;;;;;;;4.13;2.90;;;;;;;;;;6292995;28;20040;-77
2022/09/06 02:47:26;;;;;;;4.00;3.40;;;;;;;;;;6279578;28;20045;-76
2022/09/06 02:50:28;;;;;;;2.97;2.55;;;;;;;;;;6289066;28;20064;-78
2022/09/06 02:53:29;;;;;;;6.03;3.00;;;;;;;;;;6289234;28;20044;-78
2022/09/06 02:56:32;;;;;;;4.32;3.00;;;;;;;;;;6294998;28;20044;-76
2022/09/06 02:59:34;;;;;;;3.40;3.10;;;;;;;;;;6287494;28;20094;-78
2022/09/06 03:02:36;;;;;;;3.55;3.10;;;;;;;;;;6295365;28;20098;-79
2022/09/06 03:05:38;;;;;;;3.78;2.85;;;;;;;;;;6285911;28;20079;-77
2022/09/06 03:08:39;;;;;;;3.75;3.20;;;;;;;;;;6282439;28;20098;-80
2022/09/06 03:11:41;;;;;;;6.45;3.03;;;;;;;;;;6286834;28;20131;-79
2022/09/06 03:14:43;;;;;;;3.00;2.70;;;;;;;;;;6266757;28;20095;-79
2022/09/06 03:17:44;;;;;;;4.70;3.30;;;;;;;;;;6278911;28;20075;-76
2022/09/06 03:20:49;;;;;;;4.47;3.28;;;;;;;;;;6277842;28;20131;-79
2022/09/06 03:23:51;;;;;;;4.55;2.90;;;;;;;;;;6276703;28;20105;-79
2022/09/06 03:26:52;;;;;;;5.13;3.17;;;;;;;;;;6276865;28;20045;-79
2022/09/06 03:29:54;;;;;;;6.43;3.15;;;;;;;;;;6289889;28;20121;-79
2022/09/06 03:32:56;;;;;;;5.72;3.60;;;;;;;;;;6289979;28;20480;-78
2022/09/06 03:36:03;;;;;;;4.88;3.20;;;;;;;;;;6290225;28;20041;-78
2022/09/06 03:39:05;;;;;;;3.63;3.30;;;;;;;;;;6282269;28;20492;-79
2022/09/06 03:42:07;;;;;;;6.18;3.63;;;;;;;;;;6276340;28;20049;-77
2022/09/06 03:45:11;;;;;;;4.95;3.10;;;;;;;;;;6245131;28;20047;-77
2022/09/06 03:48:19;;;;;;;3.80;3.40;;;;;;;;;;6251511;28;20040;-79
2022/09/06 03:51:20;;;;;;;4.75;3.38;;;;;;;;;;6289975;28;20045;-76
2022/09/06 03:54:23;;;;;;;4.18;3.30;;;;;;;;;;6289334;28;20715;-79
2022/09/06 03:57:25;;;;;;;5.32;3.20;;;;;;;;;;6291156;28;20705;-79
2022/09/06 04:00:26;;;;;;;6.70;3.08;;;;;;;;;;6290649;28;20045;-79
2022/09/06 04:03:28;;;;;;;3.78;3.10;;;;;;;;;;6288920;28;20052;-79
2022/09/06 04:06:29;;;;;;;3.45;3.15;;;;;;;;;;6280826;28;20136;-77
2022/09/06 04:09:31;;;;;;;4.57;3.38;;;;;;;;;;6279214;28;20422;-79
2022/09/06 04:12:33;;;;;;;5.10;3.60;;;;;;;;;;6287729;28;20111;-79
2022/09/06 04:15:36;;;;;;;4.30;3.30;;;;;;;;;;6277369;28;20051;-78
2022/09/06 04:18:37;;;;;;;4.43;3.37;;;;;;;;;;6280436;28;20133;-78
2022/09/06 04:21:39;;;;;;;5.43;3.03;;;;;;;;;;6280648;28;20505;-76
2022/09/06 04:24:40;;;;;;;3.78;3.10;;;;;;;;;;6280948;28;20516;-78
2022/09/06 04:27:42;;;;;;;5.72;3.08;;;;;;;;;;6273019;28;20129;-77
2022/09/06 04:30:50;;;;;;;4.88;3.13;;;;;;;;;;6285776;28;20098;-77
2022/09/06 04:33:51;;;;;;;4.30;3.50;;;;;;;;;;6276237;28;20178;-77
2022/09/06 04:36:53;;;;;;;4.32;3.50;;;;;;;;;;6271949;28;20131;-78
2022/09/06 04:39:55;;;;;;;4.25;3.05;;;;;;;;;;6273568;28;20044;-78
2022/09/06 04:42:56;;;;;;;5.00;3.65;;;;;;;;;;6281151;28;20126;-77
2022/09/06 04:46:24;;;;;;;4.28;3.20;;;;;;;;;;6278006;28;20053;-76
2022/09/06 04:49:25;;;;;;;5.32;3.33;;;;;;;;;;6278566;28;20482;-78
2022/09/06 04:52:27;;;;;;;6.05;5.22;;;;;;;;;;6277099;28;20049;-77
2022/09/06 04:55:32;;;;;;;5.68;4.30;;;;;;;;;;6285684;28;20419;-77
2022/09/06 04:58:34;;;;;;;5.70;4.40;;;;;;;;;;6283715;28;20040;-76
2022/09/06 05:01:35;;;;;;;5.55;4.03;;;;;;;;;;6275728;28;20526;-76
2022/09/06 05:04:37;;;;;;;5.05;3.35;;;;;;;;;;6278363;28;20047;-76
2022/09/06 05:07:39;;;;;;;4.18;3.70;;;;;;;;;;6285396;28;20392;-77
2022/09/06 05:10:40;;;;;;;5.32;3.50;;;;;;;;;;6277842;28;20060;-77
2022/09/06 05:13:42;;;;;;;6.10;3.70;;;;;;;;;;6284015;28;20538;-76
2022/09/06 05:16:45;;;;;;;6.40;3.55;;;;;;;;;;6282817;28;20048;-78
2022/09/06 05:19:47;;;;;;;4.80;3.30;;;;;;;;;;6282052;28;20048;-78
2022/09/06 05:22:53;;;;;;;4.53;3.40;;;;;;;;;;6270430;28;20040;-77
2022/09/06 05:25:54;;;;;;;5.03;3.42;;;;;;;;;;6277447;28;20049;-78
2022/09/06 05:28:56;;;;;;;7.22;3.50;;;;;;;;;;6282674;28;20137;-79
2022/09/06 05:31:58;;;;;;;4.32;3.72;;;;;;;;;;6268537;28;20041;-79
2022/09/06 05:34:59;;;;;;;5.18;3.75;;;;;;;;;;6281345;28;20048;-78
2022/09/06 05:38:02;;;;;;;5.18;3.72;;;;;;;;;;6284999;28;20078;-79
2022/09/06 05:41:03;;;;;;;6.90;4.00;;;;;;;;;;6281214;28;20135;-79
2022/09/06 05:44:05;;;;;;;4.55;3.67;;;;;;;;;;6286704;28;20044;-79
2022/09/06 05:47:07;;;;;;;6.65;3.83;;;;;;;;;;6273872;28;20048;-77
2022/09/06 05:50:09;;;;;;;5.30;4.38;;;;;;;;;;6285239;28;20122;-78
2022/09/06 05:53:11;;;;;;;5.40;4.05;;;;;;;;;;6277257;28;20499;-77
2022/09/06 05:56:14;;;;;;;8.88;4.10;;;;;;;;;;6280555;28;20044;-79
2022/09/06 05:59:15;;;;;;;4.37;3.90;;;;;;;;;;6284474;28;20044;-78
2022/09/06 06:02:17;;;;;;;5.80;4.05;;;;;;;;;;6255713;28;20115;-77
2022/09/06 06:05:19;;;;;;;5.93;4.22;;;;;;;;;;6272466;28;20044;-78
2022/09/06 06:08:21;;;;;;;7.40;3.75;;;;;;;;;;6281918;28;20041;-77
2022/09/06 06:11:24;;;;;;;6.65;4.28;;;;;;;;;;6278039;28;20049;-77
2022/09/06 06:14:28;;;;;;;6.13;3.75;;;;;;;;;;6282531;28;20128;-77
2022/09/06 06:17:30;;;;;;;4.88;3.95;;;;;;;;;;6275526;28;20074;-76
2022/09/06 06:20:31;;;;;;;4.95;3.40;;;;;;;;;;6279098;28;20091;-79
2022/09/06 06:23:33;;;;;;;8.98;3.88;;;;;;;;;;6280123;28;20789;-77
2022/09/06 06:26:36;;;;;;;7.70;4.22;;;;;;;;;;6284982;28;20095;-78
2022/09/06 06:29:37;;;;;;;5.35;3.50;;;;;;;;;;6274985;28;20052;-78
2022/09/06 06:32:39;;;;;;;10.40;4.00;;;;;;;;;;6272733;28;20195;-77
2022/09/06 06:35:41;;;;;;;5.43;3.55;;;;;;;;;;6281884;28;20044;-78
2022/09/06 06:38:44;;;;;;;6.50;3.80;;;;;;;;;;6286065;28;20063;-76
2022/09/06 06:41:48;;;;;;;5.70;3.85;;;;;;;;;;6278128;28;20641;-78
2022/09/06 06:45:06;;;;;;;6.45;3.88;;;;;;;;;;6269000;28;20055;-77
2022/09/06 06:48:08;;;;;;;6.20;4.05;;;;;;;;;;6278211;28;20040;-77
2022/09/06 06:51:15;;;;;;;5.90;3.42;;;;;;;;;;6280020;28;20055;-79
2022/09/06 06:54:17;;;;;;;12.25;4.15;;;;;;;;;;6284221;28;20083;-78
2022/09/06 06:57:18;;;;;;;11.30;4.38;;;;;;;;;;6283973;28;20041;-78
2022/09/06 07:00:20;;;;;;;10.73;4.00;;;;;;;;;;6277069;28;20495;-77
2022/09/06 07:03:28;;;;;;;14.35;3.83;;;;;;;;;;6276952;28;20044;-79
2022/09/06 07:06:29;;;;;;;12.70;3.70;;;;;;;;;;6255440;28;20432;-76
2022/09/06 07:09:51;;;;;;;9.77;4.03;;;;;;;;;;6284563;28;20139;-79
2022/09/06 07:13:13;;;;;;;14.57;3.97;;;;;;;;;;6288590;28;20036;-78
2022/09/06 07:16:19;;;;;;;15.98;4.05;;;;;;;;;;6283073;28;20051;-78
2022/09/06 07:19:20;;;;;;;14.32;4.50;;;;;;;;;;6282994;28;20087;-78
2022/09/06 07:22:42;;;;;;;11.95;3.75;;;;;;;;;;6274008;28;20655;-79
2022/09/06 07:25:44;;;;;;;16.52;3.58;;;;;;;;;;6276151;28;20064;-79
2022/09/06 07:28:46;;;;;;;9.73;3.45;;;;;;;;;;6282275;28;20047;-77
2022/09/06 07:31:48;;;;;;;12.05;3.67;;;;;;;;;;6277633;28;20041;-75
2022/09/06 07:35:11;;;;;;;8.43;3.45;;;;;;;;;;6283914;28;20509;-79
2022/09/06 07:38:13;;;;;;;4.50;2.67;;;;;;;;;;6287333;28;20044;-76
2022/09/06 07:41:16;;;;;;;8.48;3.10;;;;;;;;;;6281901;28;20040;-79
2022/09/06 07:44:18;;;;;;;8.98;2.88;;;;;;;;;;6285404;28;20117;-78
2022/09/06 07:47:20;;;;;;;7.53;2.95;;;;;;;;;;6279967;28;20125;-78
2022/09/06 07:50:41;;;;;;;6.10;2.45;;;;;;;;;;6282960;28;20238;-79
2022/09/06 07:53:51;;;;;;;6.38;3.20;;;;;;;;;;6273349;28;20037;-77
2022/09/06 07:57:13;;;;;;;6.20;2.45;;;;;;;;;;6286363;28;20037;-77
2022/09/06 08:00:15;;;;;;;5.60;2.67;;;;;;;;;;6276942;28;20064;-76
2022/09/06 08:03:16;;;;;;;4.17;2.80;;;;;;;;;;6271238;28;20051;-78
2022/09/06 08:06:19;;;;;;;7.13;2.45;;;;;;;;;;6284242;28;20435;-77
2022/09/06 08:09:21;;;;;;;4.88;2.63;;;;;;;;;;6283198;28;20060;-79
2022/09/06 08:12:24;;;;;;;3.43;2.63;;;;;;;;;;6283786;28;20051;-78
2022/09/06 08:15:28;;;;;;;2.85;2.10;;;;;;;;;;6276307;28;20046;-77
2022/09/06 08:18:30;;;;;;;4.95;2.38;;;;;;;;;;6283498;28;20040;-76
2022/09/06 08:21:32;;;;;;;4.03;2.10;;;;;;;;;;6280567;28;20052;-79
2022/09/06 08:24:34;;;;;;;3.05;2.03;;;;;;;;;;6283357;28;20494;-78
2022/09/06 08:27:36;;;;;;;3.30;1.70;;;;;;;;;;6289362;28;20040;-77
2022/09/06 08:30:38;;;;;;;2.70;1.90;;;;;;;;;;6286896;28;20509;-78
2022/09/06 08:33:41;;;;;;;3.37;1.87;;;;;;;;;;6279155;28;20063;-78
2022/09/06 08:36:44;;;;;;;3.83;2.00;;;;;;;;;;6287235;28;20051;-78
2022/09/06 08:39:45;;;;;;;1.88;1.60;;;;;;;;;;6278165;28;20127;-78
2022/09/06 08:42:47;;;;;;;4.40;1.70;;;;;;;;;;6274110;28;20125;-78
2022/09/06 08:45:54;;;;;;;2.63;1.93;;;;;;;;;;6281945;28;20105;-78
2022/09/06 08:48:56;;;;;;;1.60;1.50;;;;;;;;;;6286648;28;20044;-77
2022/09/06 08:52:11;;;;;;;1.60;1.50;;;;;;;;;;6286197;28;20878;-78
2022/09/06 08:55:24;;;;;;;2.03;1.50;;;;;;;;;;6285627;28;20446;-75
2022/09/06 08:58:52;;;;;;;2.05;1.40;;;;;;;;;;6278841;28;20526;-78
2022/09/06 09:02:18;;;;;;;2.10;1.50;;;;;;;;;;6280434;28;20044;-78
2022/09/06 09:05:25;;;;;;;3.20;1.60;;;;;;;;;;6267036;28;20052;-78
2022/09/06 09:08:39;;;;;;;4.60;1.60;;;;;;;;;;6284639;28;20556;-78
2022/09/06 09:11:44;;;;;;;2.45;1.52;;;;;;;;;;6276191;28;20485;-78
2022/09/06 09:14:49;;;;;;;1.55;1.45;;;;;;;;;;6276068;28;20063;-78
2022/09/06 09:17:52;;;;;;;2.47;1.38;;;;;;;;;;6265318;28;20435;-78
2022/09/06 09:20:54;;;;;;;1.92;1.52;;;;;;;;;;6283444;28;20045;-76
2022/09/06 09:23:58;;;;;;;2.38;1.40;;;;;;;;;;6283577;28;20052;-78
2022/09/06 09:27:07;;;;;;;1.85;1.30;;;;;;;;;;6273226;28;20083;-78
2022/09/06 09:30:09;;;;;;;3.78;1.42;;;;;;;;;;6275050;28;20048;-76
2022/09/06 09:33:34;;;;;;;2.75;1.25;;;;;;;;;;6283227;28;21027;-77
2022/09/06 09:36:36;;;;;;;1.92;1.77;;;;;;;;;;6275464;28;20051;-78
2022/09/06 09:39:39;;;;;;;1.83;1.73;;;;;;;;;;6271106;28;20041;-78
2022/09/06 09:42:41;;;;;;;2.25;1.48;;;;;;;;;;6279731;28;20044;-78
2022/09/06 09:45:43;;;;;;;2.00;1.30;;;;;;;;;;6278515;28;20106;-78
2022/09/06 09:49:02;;;;;;;1.38;1.27;;;;;;;;;;6274323;28;20044;-78
2022/09/06 09:52:08;;;;;;;1.08;0.98;;;;;;;;;;6280465;28;20725;-78
2022/09/06 09:55:10;;;;;;;0.90;0.90;;;;;;;;;;6283746;28;20515;-78
2022/09/06 09:58:30;;;;;;;1.25;1.05;;;;;;;;;;6283938;28;20045;-78
2022/09/06 10:01:32;;;;;;;1.55;0.90;;;;;;;;;;6283102;28;20049;-79
2022/09/06 10:04:42;;;;;;;1.85;1.30;;;;;;;;;;6277000;28;20515;-77
2022/09/06 10:07:48;;;;;;;2.65;1.40;;;;;;;;;;6270426;28;20045;-78
2022/09/06 10:10:50;;;;;;;2.22;1.20;;;;;;;;;;6278375;28;20053;-78
2022/09/06 10:14:09;;;;;;;2.38;1.17;;;;;;;;;;6292163;28;20048;-78
2022/09/06 10:17:33;;;;;;;1.52;0.95;;;;;;;;;;6274894;28;20201;-78
2022/09/06 10:20:43;;;;;;;2.25;1.10;;;;;;;;;;6270559;28;20040;-78
2022/09/06 10:24:04;;;;;;;1.38;0.93;;;;;;;;;;6284442;28;20534;-78
2022/09/06 10:27:27;;;;;;;1.33;1.10;;;;;;;;;;6278207;28;20043;-78
2022/09/06 10:30:33;;;;;;;1.65;0.90;;;;;;;;;;6290951;28;20499;-77
2022/09/06 10:34:00;;;;;;;2.60;1.23;;;;;;;;;;6286149;28;20506;-79
2022/09/06 10:37:35;;;;;;;1.48;0.95;;;;;;;;;;6283021;28;20036;-79
2022/09/06 10:41:01;;;;;;;2.25;0.98;;;;;;;;;;6289399;28;20045;-79
2022/09/06 10:44:17;;;;;;;0.95;0.90;;;;;;;;;;6293148;28;20045;-79
2022/09/06 10:47:19;;;;;;;2.22;1.05;;;;;;;;;;6288599;28;20044;-79
2022/09/06 10:50:27;;;;;;;2.35;1.00;;;;;;;;;;6291964;28;20041;-78
2022/09/06 10:53:54;;;;;;;2.58;1.00;;;;;;;;;;6281543;28;20041;-79
2022/09/06 10:57:16;;;;;;;2.47;1.00;;;;;;;;;;6282789;28;20098;-80
2022/09/06 11:00:42;;;;;;;;;;;;;;;;;;6281394;28;20583;-79
2022/09/06 11:03:44;;;;;;;2.25;0.90;;;;;;;;;;6283028;28;19921;-79
2022/09/06 11:06:59;;;;;;;1.52;0.95;;;;;;;;;;6277735;28;20041;-77
2022/09/06 11:10:36;;;;;;;1.13;0.90;;;;;;;;;;6292197;28;20068;-78
2022/09/06 11:13:38;;;;;;;0.73;0.73;;;;;;;;;;6280998;28;20070;-78
2022/09/06 11:16:49;;;;;;;1.55;0.88;;;;;;;;;;6279387;28;20036;-77
2022/09/06 11:20:04;;;;;;;2.20;0.75;;;;;;;;;;6288697;28;20045;-79
2022/09/06 11:23:41;;;;;;;2.53;0.70;;;;;;;;;;6289741;28;20169;-75
2022/09/06 11:27:11;;;;;;;1.23;0.90;;;;;;;;;;6223095;28;20037;-76
2022/09/06 11:30:19;;;;;;;1.40;0.70;;;;;;;;;;6272901;28;20064;-76
2022/09/06 11:33:23;;;;;;;2.10;0.95;;;;;;;;;;6265383;28;20072;-77
2022/09/06 11:36:33;;;;;;;1.02;0.93;;;;;;;;;;6282840;28;20132;-75
2022/09/06 11:39:41;;;;;;;1.52;0.80;;;;;;;;;;6289263;28;20048;-77
2022/09/06 11:43:03;;;;;;;1.17;1.00;;;;;;;;;;6284960;28;20037;-77
2022/09/06 11:46:04;;;;;;;1.40;0.80;;;;;;;;;;6265206;28;20041;-77
2022/09/06 11:49:09;;;;;;;2.42;1.10;;;;;;;;;;6265442;28;20518;-79
2022/09/06 11:52:49;;;;;;;1.90;0.90;;;;;;;;;;6280523;28;20118;-77
2022/09/06 11:56:21;;;;;;;1.88;0.88;;;;;;;;;;6283656;28;20036;-77
2022/09/06 11:59:50;;;;;;;1.48;0.85;;;;;;;;;;6279055;28;20048;-76
2022/09/06 12:02:52;;;;;;;0.82;0.80;;;;;;;;;;6288749;28;20049;-77
2022/09/06 12:06:19;;;;;;;2.22;0.85;;;;;;;;;;6269204;28;20048;-76
2022/09/06 12:09:26;;;;;;;1.50;0.80;;;;;;;;;;6291786;28;20053;-76
2022/09/06 12:12:51;;;;;;;1.25;0.98;;;;;;;;;;6274680;28;20033;-76
2022/09/06 12:15:53;;;;;;;1.65;1.00;;;;;;;;;;6266999;28;20098;-76
2022/09/06 12:18:57;;;;;;;2.55;1.10;;;;;;;;;;6268158;28;20048;-78
2022/09/06 12:21:58;;;;;;;2.30;0.90;;;;;;;;;;6289541;28;20454;-78
2022/09/06 12:25:30;;;;;;;2.75;0.90;;;;;;;;;;6283312;28;20166;-78
2022/09/06 12:28:34;;;;;;;4.30;1.20;;;;;;;;;;6239920;28;20037;-77
2022/09/06 12:31:45;;;;;;;1.98;1.00;;;;;;;;;;6270306;28;20038;-77
2022/09/06 12:34:47;;;;;;;1.75;1.20;;;;;;;;;;6239517;28;20479;-76
2022/09/06 12:38:13;;;;;;;;;;;;;;;;;;6254919;28;20048;-76
2022/09/06 12:41:14;;;;;;;3.08;1.00;;;;;;;;;;6263793;28;19921;-78
2022/09/06 12:44:20;;;;;;;2.08;1.00;;;;;;;;;;6263168;28;20045;-78
2022/09/06 12:47:24;;;;;;;2.45;1.10;;;;;;;;;;6261955;28;20045;-77
2022/09/06 12:50:30;;;;;;;2.45;1.05;;;;;;;;;;6263633;28;20045;-77
2022/09/06 12:53:33;;;;;;;1.92;1.05;;;;;;;;;;6257515;28;20120;-76
2022/09/06 12:56:35;;;;;;;1.63;1.20;;;;;;;;;;6257061;28;20067;-78
2022/09/06 12:59:36;;;;;;;;;;;;;;;;;;6265713;28;20495;-78
2022/09/06 13:03:04;;;;;;;3.08;1.45;;;;;;;;;;6265941;28;19924;-77
2022/09/06 13:06:10;;;;;;;2.80;1.52;;;;;;;;;;6264838;28;20053;-78
2022/09/06 13:09:16;;;;;;;4.88;1.20;;;;;;;;;;6264560;28;20064;-78
2022/09/06 13:12:28;;;;;;;3.38;1.38;;;;;;;;;;6267489;28;20045;-79
2022/09/06 13:15:30;;;;;;;4.22;1.30;;;;;;;;;;6258285;28;20495;-78
2022/09/06 13:18:36;;;;;;;1.35;1.10;;;;;;;;;;6284232;28;20048;-77
2022/09/06 13:21:40;;;;;;;2.17;1.30;;;;;;;;;;6281769;28;20044;-77
2022/09/06 13:24:46;;;;;;;2.10;1.50;;;;;;;;;;6285164;28;20052;-78
2022/09/06 13:27:50;;;;;;;2.55;1.33;;;;;;;;;;6290321;28;20045;-77
2022/09/06 13:31:02;;;;;;;2.45;1.30;;;;;;;;;;6271010;28;20045;-77
2022/09/06 13:34:04;;;;;;;3.42;1.60;;;;;;;;;;6284849;28;20041;-77
2022/09/06 13:37:08;;;;;;;1.80;1.35;;;;;;;;;;6270958;28;20048;-79
2022/09/06 13:40:38;;;;;;;2.45;1.33;;;;;;;;;;6272100;28;20041;-78
2022/09/06 13:44:15;;;;;;;2.05;1.40;;;;;;;;;;6283931;28;20053;-78
2022/09/06 13:47:17;;;;;;;2.65;1.48;;;;;;;;;;6276643;28;20545;-77
2022/09/06 13:50:19;;;;;;;2.20;1.50;;;;;;;;;;6294611;28;20118;-79
2022/09/06 13:53:27;;;;;;;3.42;1.48;;;;;;;;;;6294410;28;20059;-78
2022/09/06 13:56:29;;;;;;;2.65;1.75;;;;;;;;;;6290799;28;20513;-78
2022/09/06 13:59:30;;;;;;;1.63;1.40;;;;;;;;;;6280219;28;20049;-78
2022/09/06 14:02:32;;;;;;;4.03;1.50;;;;;;;;;;6290289;28;20052;-77
2022/09/06 14:05:37;;;;;;;3.10;1.60;;;;;;;;;;6266766;28;20033;-77
2022/09/06 14:08:39;;;;;;;2.22;1.35;;;;;;;;;;6264680;28;20052;-77
2022/09/06 14:12:01;;;;;;;5.30;1.60;;;;;;;;;;6264670;28;20080;-77
2022/09/06 14:15:04;;;;;;;1.70;1.40;;;;;;;;;;6263843;28;20080;-76
2022/09/06 14:18:06;;;;;;;3.35;1.27;;;;;;;;;;6265494;28;20049;-77
2022/09/06 14:21:13;;;;;;;2.45;1.52;;;;;;;;;;6261487;28;20044;-76
2022/09/06 14:24:14;;;;;;;2.67;1.23;;;;;;;;;;6264353;28;20119;-77
2022/09/06 14:27:17;;;;;;;2.60;1.63;;;;;;;;;;6265748;28;20091;-77
2022/09/06 14:30:18;;;;;;;4.70;1.45;;;;;;;;;;6265903;28;20079;-77
2022/09/06 14:33:20;;;;;;;5.57;1.83;;;;;;;;;;6290129;28;20051;-77
2022/09/06 14:36:25;;;;;;;3.50;1.60;;;;;;;;;;6289381;28;20121;-76
2022/09/06 14:39:27;;;;;;;2.92;1.58;;;;;;;;;;6294167;28;20052;-77
2022/09/06 14:42:29;;;;;;;3.92;2.20;;;;;;;;;;6287944;28;20094;-77
2022/09/06 14:45:34;;;;;;;2.60;1.45;;;;;;;;;;6290023;28;20118;-77
2022/09/06 14:48:35;;;;;;;3.72;2.38;;;;;;;;;;6289268;28;20077;-77
2022/09/06 14:51:43;;;;;;;3.25;1.42;;;;;;;;;;6290242;28;20070;-78
2022/09/06 14:54:44;;;;;;;;;;;;;;;;;;6290569;28;20055;-78
2022/09/06 14:57:46;;;;;;;3.10;1.50;;;;;;;;;;6291259;28;19924;-78
2022/09/06 15:00:49;;;;;;;1.77;1.42;;;;;;;;;;6289790;28;20051;-77
2022/09/06 15:03:54;;;;;;;2.88;1.50;;;;;;;;;;6288689;28;20040;-78
2022/09/06 15:06:56;;;;;;;4.28;1.75;;;;;;;;;;6289094;28;20044;-78
2022/09/06 15:09:57;;;;;;;3.67;1.50;;;;;;;;;;6290219;28;20526;-78
2022/09/06 15:12:59;;;;;;;;;;;;;;;;;;6290052;28;20134;-79
2022/09/06 15:16:01;;;;;;;2.27;1.50;;;;;;;;;;6290020;28;19948;-78
2022/09/06 15:19:02;;;;;;;3.70;1.40;;;;;;;;;;6289878;28;20076;-78
2022/09/06 15:22:05;;;;;;;3.50;1.30;;;;;;;;;;6263609;28;20511;-77
2022/09/06 15:25:07;;;;;;;3.67;1.30;;;;;;;;;;6240695;28;20068;-79
2022/09/06 15:28:08;;;;;;;;;;;;;;;;;;6240157;28;20050;-79
2022/09/06 15:31:11;;;;;;;1.30;1.20;;;;;;;;;;6260779;28;20643;-79
2022/09/06 15:34:13;;;;;;;2.03;1.13;;;;;;;;;;6263166;28;20056;-78
2022/09/06 15:37:15;;;;;;;3.42;1.42;;;;;;;;;;6268289;28;20507;-79
2022/09/06 15:40:17;;;;;;;2.13;1.17;;;;;;;;;;6282855;28;20037;-78
2022/09/06 15:43:19;;;;;;;2.25;1.05;;;;;;;;;;6289786;28;20525;-78
2022/09/06 15:46:41;;;;;;;2.42;1.20;;;;;;;;;;6288342;28;20106;-79
2022/09/06 15:49:42;;;;;;;1.70;1.20;;;;;;;;;;6267748;28;20064;-78
2022/09/06 15:52:44;;;;;;;2.20;1.02;;;;;;;;;;6265744;28;20746;-78
2022/09/06 15:55:55;;;;;;;1.55;0.90;;;;;;;;;;6266630;28;20122;-79
2022/09/06 15:58:56;;;;;;;2.92;1.00;;;;;;;;;;6266213;28;20052;-79
2022/09/06 16:01:58;;;;;;;1.00;0.90;;;;;;;;;;6265573;28;20067;-79
2022/09/06 16:05:00;;;;;;;1.38;1.10;;;;;;;;;;6265056;28;20072;-79
2022/09/06 16:08:02;;;;;;;;;;;;;;;;;;6259319;28;20052;-79
2022/09/06 16:11:09;;;;;;;1.23;1.00;;;;;;;;;;6276274;28;19970;-78
2022/09/06 16:14:13;;;;;;;1.60;1.27;;;;;;;;;;6279922;28;20170;-77
2022/09/06 16:17:14;;;;;;;1.90;1.30;;;;;;;;;;6286853;28;20515;-79
2022/09/06 16:20:16;;;;;;;2.47;1.42;;;;;;;;;;6282196;28;20128;-77
2022/09/06 16:23:18;;;;;;;2.60;1.02;;;;;;;;;;6280413;28;20047;-79
2022/09/06 16:26:23;;;;;;;2.78;1.33;;;;;;;;;;6286496;28;20041;-79
2022/09/06 16:29:25;;;;;;;3.42;1.42;;;;;;;;;;6285520;28;20072;-78
2022/09/06 16:32:26;;;;;;;3.38;1.23;;;;;;;;;;6287448;28;20080;-77
2022/09/06 16:35:28;;;;;;;1.60;1.20;;;;;;;;;;6280018;28;20071;-79
2022/09/06 16:38:31;;;;;;;2.55;1.65;;;;;;;;;;6288403;28;20048;-78
2022/09/06 16:41:46;;;;;;;1.75;1.27;;;;;;;;;;6286694;28;20521;-77
2022/09/06 16:44:51;;;;;;;5.13;1.40;;;;;;;;;;6278489;28;20036;-79
2022/09/06 16:47:53;;;;;;;;;;;;;;;;;;6283287;28;20048;-78
2022/09/06 16:50:54;;;;;;;1.85;1.23;;;;;;;;;;6282311;28;20379;-77
2022/09/06 16:53:57;;;;;;;3.58;1.42;;;;;;;;;;6284265;28;20094;-76
2022/09/06 16:57:00;;;;;;;2.20;1.60;;;;;;;;;;6282675;28;20044;-78
2022/09/06 17:00:03;;;;;;;2.63;1.40;;;;;;;;;;6288740;28;20052;-79
2022/09/06 17:03:05;;;;;;;3.00;1.52;;;;;;;;;;6285329;28;20055;-79
2022/09/06 17:06:07;;;;;;;3.38;1.55;;;;;;;;;;6280845;28;20178;-77
2022/09/06 17:09:14;;;;;;;2.47;1.48;;;;;;;;;;6283029;28;20191;-79
2022/09/06 17:12:15;;;;;;;1.73;1.50;;;;;;;;;;6296840;28;20094;-77
2022/09/06 17:15:17;;;;;;;2.17;1.40;;;;;;;;;;6293794;28;20041;-78
2022/09/06 17:18:21;;;;;;;3.00;1.50;;;;;;;;;;6288029;28;20044;-79
2022/09/06 17:21:23;;;;;;;3.55;1.40;;;;;;;;;;6280603;28;20040;-81
2022/09/06 17:24:25;;;;;;;1.95;1.38;;;;;;;;;;6281631;28;20044;-80
2022/09/06 17:27:27;;;;;;;3.88;1.80;;;;;;;;;;6283767;28;20373;-80
2022/09/06 17:30:29;;;;;;;2.88;1.40;;;;;;;;;;6285866;28;20189;-80
2022/09/06 17:33:33;;;;;;;3.33;1.50;;;;;;;;;;6283811;28;20032;-77
2022/09/06 17:36:35;;;;;;;2.28;1.30;;;;;;;;;;6286773;28;20129;-78
2022/09/06 17:39:37;;;;;;;2.25;1.60;;;;;;;;;;6288265;28;20052;-80
2022/09/06 17:42:38;;;;;;;2.95;1.23;;;;;;;;;;6274986;28;20166;-79
2022/09/06 17:45:41;;;;;;;2.20;1.17;;;;;;;;;;6286427;28;20033;-80
2022/09/06 17:48:43;;;;;;;2.22;1.52;;;;;;;;;;6284350;28;20044;-78
2022/09/06 17:51:45;;;;;;;3.07;1.37;;;;;;;;;;6262494;28;20048;-79
2022/09/06 17:54:47;;;;;;;2.97;1.42;;;;;;;;;;6275092;28;20186;-79
2022/09/06 17:57:52;;;;;;;0.93;0.90;;;;;;;;;;6270194;28;20056;-76
2022/09/06 18:00:54;;;;;;;2.60;1.25;;;;;;;;;;6287017;28;20045;-78
2022/09/06 18:03:57;;;;;;;1.27;0.98;;;;;;;;;;6283563;28;20663;-78
2022/09/06 18:06:59;;;;;;;1.90;1.52;;;;;;;;;;6283046;28;20036;-78
2022/09/06 18:10:00;;;;;;;4.20;1.20;;;;;;;;;;6288879;28;20444;-79
2022/09/06 18:13:03;;;;;;;3.40;1.30;;;;;;;;;;6272517;28;20525;-79
2022/09/06 18:16:05;;;;;;;1.63;1.50;;;;;;;;;;6287184;28;20053;-77
2022/09/06 18:19:07;;;;;;;1.37;1.27;;;;;;;;;;6279600;28;20546;-81
2022/09/06 18:22:09;;;;;;;3.28;1.00;;;;;;;;;;6276244;28;20041;-78
2022/09/06 18:25:11;;;;;;;1.15;1.00;;;;;;;;;;6288025;28;20569;-79
2022/09/06 18:28:13;;;;;;;1.35;1.10;;;;;;;;;;6275864;28;20083;-80
2022/09/06 18:31:17;;;;;;;2.28;1.20;;;;;;;;;;6289073;28;20114;-78
2022/09/06 18:34:19;;;;;;;3.25;1.10;;;;;;;;;;6275172;28;20047;-80
2022/09/06 18:37:21;;;;;;;4.43;0.93;;;;;;;;;;6289116;28;20049;-80
2022/09/06 18:40:23;;;;;;;3.58;1.13;;;;;;;;;;6290401;28;20032;-77